createdAt,value
2022-10-28T00:00:05.687Z,10.91
2022-10-28T00:01:12.013Z,11.11
2022-10-28T00:02:08.791Z,11.14
2022-10-28T00:03:05.636Z,11.16
2022-10-28T00:04:02.514Z,11.18
2022-10-28T00:04:59.325Z,10.10
2022-10-28T00:06:07.427Z,10.33
2022-10-28T00:07:04.462Z,11.28
2022-10-28T00:08:01.142Z,10.75
2022-10-28T00:08:58.445Z,10.13
2022-10-28T00:09:55.144Z,11.08
2022-10-28T00:10:54.791Z,10.64
2022-10-28T00:11:51.831Z,11.30
2022-10-28T00:12:48.513Z,10.73
2022-10-28T00:13:46.172Z,11.20
2022-10-28T00:14:42.848Z,10.79
2022-10-28T00:15:39.561Z,11.15
2022-10-28T00:16:38.109Z,10.18
2022-10-28T00:17:34.893Z,11.19
2022-10-28T00:18:31.594Z,11.19
2022-10-28T00:19:28.430Z,10.26
2022-10-28T00:20:25.199Z,11.57
2022-10-28T00:21:24.631Z,11.72
2022-10-28T00:22:21.323Z,10.52
2022-10-28T00:23:18.027Z,11.66
2022-10-28T00:24:15.149Z,11.37
2022-10-28T00:25:11.859Z,11.42
2022-10-28T00:26:10.756Z,10.87
2022-10-28T00:27:07.493Z,11.04
2022-10-28T00:28:04.290Z,9.62
2022-10-28T00:29:04.590Z,10.87
2022-10-28T00:30:01.758Z,9.74
2022-10-28T00:31:04.700Z,10.80
2022-10-28T00:32:01.521Z,10.79
2022-10-28T00:32:58.291Z,10.77
2022-10-28T00:33:55.768Z,10.58
2022-10-28T00:34:52.545Z,10.71
2022-10-28T00:35:49.218Z,10.17
2022-10-28T00:36:47.630Z,10.69
2022-10-28T00:37:44.339Z,9.88
2022-10-28T00:38:42.779Z,10.28
2022-10-28T00:39:39.532Z,9.55
2022-10-28T00:40:36.343Z,10.75
2022-10-28T00:41:36.995Z,10.80
2022-10-28T00:42:33.691Z,8.09
2022-10-28T00:43:38.498Z,10.15
2022-10-28T00:44:56.781Z,11.26
2022-10-28T00:45:53.613Z,10.37
2022-10-28T00:46:55.797Z,11.26
2022-10-28T00:48:01.042Z,10.67
2022-10-28T00:49:06.194Z,10.48
2022-10-28T00:50:30.469Z,10.77
2022-10-28T00:51:29.688Z,10.25
2022-10-28T00:52:30.898Z,11.20
2022-10-28T00:53:32.370Z,10.69
2022-10-28T00:54:31.702Z,11.10
2022-10-28T00:55:30.190Z,10.30
2022-10-28T00:56:32.584Z,10.30
2022-10-28T00:57:33.864Z,10.69
2022-10-28T00:58:31.650Z,11.07
2022-10-28T00:59:33.889Z,10.96
2022-10-28T01:00:30.840Z,10.14
2022-10-28T01:01:27.691Z,10.83
2022-10-28T01:02:24.595Z,11.12
2022-10-28T01:03:22.270Z,10.82
2022-10-28T01:04:20.750Z,11.34
2022-10-28T01:05:28.772Z,10.88
2022-10-28T01:06:28.823Z,10.47
2022-10-28T01:07:26.107Z,10.80
2022-10-28T01:08:22.818Z,9.76
2022-10-28T01:09:19.594Z,10.61
2022-10-28T01:10:16.595Z,10.32
2022-10-28T01:11:30.417Z,9.34
2022-10-28T01:12:33.346Z,10.53
2022-10-28T01:13:45.421Z,10.50
2022-10-28T01:15:13.275Z,10.83
2022-10-28T01:16:36.687Z,10.73
2022-10-28T01:18:00.550Z,10.55
2022-10-28T01:19:09.407Z,10.73
2022-10-28T01:20:08.876Z,10.58
2022-10-28T01:21:08.175Z,10.77
2022-10-28T01:22:32.457Z,10.89
2022-10-28T01:23:47.599Z,10.47
2022-10-28T01:24:46.999Z,10.42
2022-10-28T01:25:55.898Z,10.46
2022-10-28T01:27:29.733Z,10.85
2022-10-28T01:28:38.546Z,10.83
2022-10-28T01:29:45.134Z,10.68
2022-10-28T01:31:15.667Z,10.70
2022-10-28T01:32:33.370Z,10.73
2022-10-28T01:33:50.780Z,10.60
2022-10-28T01:35:03.728Z,10.57
2022-10-28T01:36:13.507Z,10.43
2022-10-28T01:37:30.766Z,10.29
2022-10-28T01:38:41.674Z,10.21
2022-10-28T01:39:54.994Z,10.17
2022-10-28T01:41:21.710Z,10.14
2022-10-28T01:42:21.035Z,10.05
2022-10-28T01:43:38.579Z,9.71
2022-10-28T01:44:42.465Z,10.15
2022-10-28T01:46:00.361Z,10.22
2022-10-28T01:47:11.269Z,10.11
2022-10-28T01:48:24.195Z,10.15
2022-10-28T01:49:30.171Z,10.12
2022-10-28T01:50:50.756Z,9.93
2022-10-28T01:52:00.398Z,9.97
2022-10-28T01:53:03.596Z,8.96
2022-10-28T01:54:05.519Z,9.71
2022-10-28T01:55:15.971Z,10.37
2022-10-28T01:56:21.274Z,9.47
2022-10-28T01:57:19.825Z,10.57
2022-10-28T01:58:23.546Z,10.29
2022-10-28T01:59:25.012Z,10.15
2022-10-28T02:00:21.863Z,10.06
2022-10-28T02:01:21.107Z,10.30
2022-10-28T02:02:18.709Z,9.33
2022-10-28T02:03:17.246Z,10.24
2022-10-28T02:04:14.097Z,9.92
2022-10-28T02:05:40.848Z,10.06
2022-10-28T02:06:40.962Z,10.02
2022-10-28T02:07:37.890Z,9.75
2022-10-28T02:09:15.801Z,9.94
2022-10-28T02:10:33.022Z,9.73
2022-10-28T02:12:07.018Z,9.91
2022-10-28T02:13:14.144Z,9.89
2022-10-28T02:14:32.558Z,9.89
2022-10-28T02:15:43.985Z,9.03
2022-10-28T02:16:55.890Z,9.88
2022-10-28T02:18:23.731Z,10.44
2022-10-28T02:19:27.118Z,10.50
2022-10-28T02:20:48.741Z,10.46
2022-10-28T02:22:02.270Z,10.04
2022-10-28T02:23:34.050Z,9.95
2022-10-28T02:24:45.357Z,9.85
2022-10-28T02:25:56.724Z,8.80
2022-10-28T02:27:06.099Z,10.21
2022-10-28T02:29:38.421Z,10.38
2022-10-28T02:30:43.589Z,10.27
2022-10-28T02:31:45.571Z,10.19
2022-10-28T02:32:50.985Z,9.82
2022-10-28T02:33:55.568Z,9.44
2022-10-28T02:34:56.920Z,9.48
2022-10-28T02:36:01.977Z,9.56
2022-10-28T02:37:06.830Z,9.74
2022-10-28T02:38:15.285Z,8.40
2022-10-28T02:39:12.485Z,9.10
2022-10-28T02:40:16.595Z,8.81
2022-10-28T02:41:33.095Z,9.66
2022-10-28T02:42:49.458Z,9.55
2022-10-28T02:43:52.484Z,10.10
2022-10-28T02:44:56.259Z,9.67
2022-10-28T02:45:59.761Z,9.29
2022-10-28T02:47:02.425Z,10.09
2022-10-28T02:48:23.466Z,9.32
2022-10-28T02:49:20.126Z,9.62
2022-10-28T02:50:22.096Z,10.10
2022-10-28T02:51:24.974Z,9.75
2022-10-28T02:52:26.202Z,9.09
2022-10-28T02:53:32.470Z,9.91
2022-10-28T02:54:46.663Z,9.63
2022-10-28T02:55:50.311Z,8.08
2022-10-28T02:56:59.131Z,9.43
2022-10-28T02:57:58.070Z,9.60
2022-10-28T02:58:54.766Z,10.11
2022-10-28T02:59:53.287Z,9.76
2022-10-28T03:00:51.039Z,10.30
2022-10-28T03:01:47.836Z,9.92
2022-10-28T03:02:45.009Z,9.75
2022-10-28T03:03:42.161Z,9.90
2022-10-28T03:04:38.868Z,10.18
2022-10-28T03:05:35.553Z,10.30
2022-10-28T03:06:32.541Z,10.29
2022-10-28T03:07:29.227Z,10.27
2022-10-28T03:08:25.909Z,9.92
2022-10-28T03:09:22.628Z,9.99
2022-10-28T03:10:19.479Z,9.94
2022-10-28T03:11:16.591Z,9.98
2022-10-28T03:12:13.354Z,9.02
2022-10-28T03:13:10.019Z,9.89
2022-10-28T03:14:09.550Z,9.51
2022-10-28T03:15:08.937Z,8.77
2022-10-28T03:16:05.613Z,9.63
2022-10-28T03:17:02.576Z,9.46
2022-10-28T03:17:59.271Z,9.59
2022-10-28T03:18:56.188Z,9.12
2022-10-28T03:19:53.008Z,8.39
2022-10-28T03:20:49.695Z,9.38
2022-10-28T03:21:46.391Z,9.67
2022-10-28T03:22:44.318Z,9.36
2022-10-28T03:23:41.042Z,9.66
2022-10-28T03:24:37.743Z,9.02
2022-10-28T03:25:34.432Z,9.43
2022-10-28T03:26:31.179Z,9.31
2022-10-28T03:27:27.997Z,8.84
2022-10-28T03:28:24.694Z,9.12
2022-10-28T03:29:21.449Z,9.16
2022-10-28T03:30:19.050Z,9.21
2022-10-28T03:31:16.965Z,9.21
2022-10-28T03:32:13.976Z,9.23
2022-10-28T03:33:10.797Z,9.05
2022-10-28T03:34:07.467Z,8.12
2022-10-28T03:35:04.676Z,9.18
2022-10-28T03:36:01.336Z,9.10
2022-10-28T03:36:58.055Z,8.71
2022-10-28T03:37:54.956Z,8.58
2022-10-28T03:38:51.685Z,9.44
2022-10-28T03:39:48.374Z,9.37
2022-10-28T03:40:48.538Z,9.28
2022-10-28T03:41:45.359Z,8.82
2022-10-28T03:42:42.306Z,8.86
2022-10-28T03:43:39.022Z,9.29
2022-10-28T03:44:35.770Z,8.10
2022-10-28T03:45:32.612Z,8.93
2022-10-28T03:46:31.150Z,9.17
2022-10-28T03:47:30.336Z,9.18
2022-10-28T03:48:27.004Z,9.07
2022-10-28T03:49:23.703Z,9.30
2022-10-28T03:50:20.447Z,9.15
2022-10-28T03:51:17.298Z,9.32
2022-10-28T03:52:13.985Z,9.21
2022-10-28T03:53:10.748Z,9.56
2022-10-28T03:54:07.427Z,9.33
2022-10-28T03:55:04.548Z,9.52
2022-10-28T03:56:03.256Z,9.51
2022-10-28T03:56:59.929Z,9.82
2022-10-28T03:57:59.992Z,9.66
2022-10-28T03:58:56.713Z,9.57
2022-10-28T03:59:53.398Z,9.43
2022-10-28T04:00:51.264Z,8.73
2022-10-28T04:01:48.163Z,8.81
2022-10-28T04:02:52.492Z,8.82
2022-10-28T04:03:49.478Z,9.24
2022-10-28T04:04:46.306Z,9.14
2022-10-28T04:05:43.543Z,8.18
2022-10-28T04:06:40.274Z,9.10
2022-10-28T04:07:36.986Z,9.11
2022-10-28T04:08:33.723Z,9.06
2022-10-28T04:09:30.428Z,9.08
2022-10-28T04:10:27.112Z,8.45
2022-10-28T04:11:23.846Z,8.63
2022-10-28T04:12:20.606Z,8.16
2022-10-28T04:13:17.841Z,9.03
2022-10-28T04:14:14.717Z,9.01
2022-10-28T04:15:11.378Z,9.11
2022-10-28T04:16:08.144Z,9.25
2022-10-28T04:17:04.854Z,9.02
2022-10-28T04:18:01.855Z,8.88
2022-10-28T04:18:58.788Z,8.10
2022-10-28T04:19:55.723Z,9.19
2022-10-28T04:20:52.437Z,8.21
2022-10-28T04:21:49.151Z,8.69
2022-10-28T04:22:45.939Z,8.59
2022-10-28T04:23:42.641Z,7.91
2022-10-28T04:24:39.326Z,8.90
2022-10-28T04:25:36.027Z,8.24
2022-10-28T04:26:32.735Z,8.41
2022-10-28T04:27:29.414Z,8.26
2022-10-28T04:28:26.246Z,7.76
2022-10-28T04:29:22.940Z,8.64
2022-10-28T04:30:20.182Z,8.55
2022-10-28T04:31:17.088Z,8.61
2022-10-28T04:32:13.777Z,7.69
2022-10-28T04:33:12.421Z,6.77
2022-10-28T04:34:09.164Z,8.36
2022-10-28T04:35:06.282Z,8.68
2022-10-28T04:36:03.092Z,8.74
2022-10-28T04:36:59.772Z,8.58
2022-10-28T04:37:56.777Z,8.81
2022-10-28T04:38:53.648Z,8.89
2022-10-28T04:39:50.336Z,7.78
2022-10-28T04:40:49.164Z,8.59
2022-10-28T04:41:45.883Z,8.72
2022-10-28T04:42:42.560Z,8.46
2022-10-28T04:43:39.284Z,7.49
2022-10-28T04:44:36.021Z,8.58
2022-10-28T04:45:32.858Z,8.53
2022-10-28T04:46:29.535Z,8.77
2022-10-28T04:47:26.238Z,8.81
2022-10-28T04:48:22.951Z,7.87
2022-10-28T04:49:19.833Z,8.71
2022-10-28T04:50:16.664Z,8.68
2022-10-28T04:51:13.930Z,6.77
2022-10-28T04:52:14.816Z,8.66
2022-10-28T04:53:13.506Z,8.66
2022-10-28T04:54:10.239Z,8.79
2022-10-28T04:55:07.220Z,8.74
2022-10-28T04:56:04.049Z,9.19
2022-10-28T04:57:00.732Z,8.98
2022-10-28T04:57:59.855Z,8.38
2022-10-28T04:58:56.773Z,8.49
2022-10-28T04:59:53.417Z,8.61
2022-10-28T05:00:50.175Z,8.34
2022-10-28T05:01:47.133Z,8.72
2022-10-28T05:02:46.092Z,8.91
2022-10-28T05:03:42.994Z,8.79
2022-10-28T05:04:39.710Z,8.51
2022-10-28T05:05:36.458Z,8.32
2022-10-28T05:06:33.177Z,8.49
2022-10-28T05:07:30.147Z,7.68
2022-10-28T05:08:27.027Z,8.69
2022-10-28T05:09:23.683Z,8.90
2022-10-28T05:10:20.364Z,8.63
2022-10-28T05:11:17.102Z,8.56
2022-10-28T05:12:13.780Z,8.52
2022-10-28T05:13:10.494Z,8.45
2022-10-28T05:14:07.238Z,8.38
2022-10-28T05:15:04.353Z,8.44
2022-10-28T05:16:01.185Z,8.38
2022-10-28T05:16:57.979Z,8.41
2022-10-28T05:17:55.261Z,8.51
2022-10-28T05:18:52.319Z,8.16
2022-10-28T05:19:49.051Z,7.39
2022-10-28T05:20:45.840Z,8.58
2022-10-28T05:21:42.521Z,8.68
2022-10-28T05:22:46.839Z,8.71
2022-10-28T05:23:43.629Z,8.74
2022-10-28T05:24:40.327Z,8.01
2022-10-28T05:25:37.026Z,8.49
2022-10-28T05:26:33.739Z,9.01
2022-10-28T05:27:30.841Z,8.60
2022-10-28T05:28:27.822Z,8.83
2022-10-28T05:29:24.555Z,8.44
2022-10-28T05:30:21.249Z,8.94
2022-10-28T05:31:19.010Z,8.06
2022-10-28T05:32:15.841Z,9.03
2022-10-28T05:33:12.572Z,8.31
2022-10-28T05:34:09.303Z,8.54
2022-10-28T05:35:06.516Z,8.87
2022-10-28T05:36:03.415Z,8.10
2022-10-28T05:37:00.161Z,9.15
2022-10-28T05:37:57.206Z,9.45
2022-10-28T05:38:53.898Z,9.52
2022-10-28T05:39:50.666Z,9.26
2022-10-28T05:40:47.455Z,9.33
2022-10-28T05:41:47.186Z,9.33
2022-10-28T05:42:44.465Z,9.17
2022-10-28T05:43:41.202Z,8.64
2022-10-28T05:44:37.919Z,9.62
2022-10-28T05:45:34.614Z,9.79
2022-10-28T05:46:31.407Z,9.91
2022-10-28T05:47:28.118Z,9.71
2022-10-28T05:48:24.957Z,9.66
2022-10-28T05:49:21.678Z,9.61
2022-10-28T05:50:20.508Z,9.46
2022-10-28T05:51:17.186Z,9.43
2022-10-28T05:52:13.920Z,9.52
2022-10-28T05:53:10.745Z,8.99
2022-10-28T05:54:07.586Z,9.56
2022-10-28T05:55:04.671Z,9.61
2022-10-28T05:56:01.381Z,8.29
2022-10-28T05:56:58.130Z,8.75
2022-10-28T05:57:56.400Z,9.51
2022-10-28T05:58:53.511Z,8.95
2022-10-28T05:59:50.437Z,9.34
2022-10-28T06:00:47.149Z,8.98
2022-10-28T06:01:43.865Z,9.87
2022-10-28T06:02:41.324Z,9.59
2022-10-28T06:03:38.127Z,9.28
2022-10-28T06:04:34.890Z,8.63
2022-10-28T06:05:31.627Z,9.60
2022-10-28T06:06:28.784Z,8.72
2022-10-28T06:07:25.743Z,9.81
2022-10-28T06:08:22.440Z,9.97
2022-10-28T06:09:19.147Z,9.93
2022-10-28T06:10:15.997Z,10.07
2022-10-28T06:11:11.526Z,9.72
2022-10-28T06:12:08.330Z,10.09
2022-10-28T06:13:05.961Z,10.29
2022-10-28T06:14:02.676Z,10.40
2022-10-28T06:15:00.181Z,10.18
2022-10-28T06:15:56.938Z,10.31
2022-10-28T06:16:53.615Z,10.56
2022-10-28T06:17:50.415Z,10.65
2022-10-28T06:18:47.113Z,10.48
2022-10-28T06:19:43.819Z,10.55
2022-10-28T06:20:40.519Z,10.44
2022-10-28T06:21:37.514Z,9.69
2022-10-28T06:22:34.209Z,10.77
2022-10-28T06:23:30.934Z,10.29
2022-10-28T06:24:27.664Z,10.74
2022-10-28T06:25:25.731Z,10.80
2022-10-28T06:26:22.431Z,10.29
2022-10-28T06:27:19.125Z,9.83
2022-10-28T06:28:15.961Z,10.52
2022-10-28T06:29:12.799Z,9.56
2022-10-28T06:30:10.136Z,10.52
2022-10-28T06:31:10.083Z,10.11
2022-10-28T06:32:09.828Z,9.74
2022-10-28T06:33:06.875Z,9.30
2022-10-28T06:34:04.273Z,9.53
2022-10-28T06:35:00.981Z,10.82
2022-10-28T06:35:58.922Z,10.56
2022-10-28T06:36:55.682Z,11.00
2022-10-28T06:37:55.247Z,11.02
2022-10-28T06:38:52.682Z,10.34
2022-10-28T06:39:52.772Z,10.44
2022-10-28T06:40:52.381Z,10.90
2022-10-28T06:41:49.392Z,10.40
2022-10-28T06:42:46.161Z,11.19
2022-10-28T06:43:42.860Z,10.09
2022-10-28T06:44:39.610Z,11.05
2022-10-28T06:45:36.338Z,9.96
2022-10-28T06:46:34.596Z,9.91
2022-10-28T06:47:31.417Z,10.75
2022-10-28T06:48:28.117Z,11.15
2022-10-28T06:49:24.833Z,10.12
2022-10-28T06:50:21.511Z,11.16
2022-10-28T06:51:18.280Z,10.37
2022-10-28T06:52:15.008Z,11.29
2022-10-28T06:53:11.712Z,11.45
2022-10-28T06:54:08.453Z,11.62
2022-10-28T06:55:05.554Z,11.65
2022-10-28T06:56:02.326Z,11.67
2022-10-28T06:56:59.206Z,11.74
2022-10-28T06:58:00.869Z,11.59
2022-10-28T06:58:57.558Z,11.67
2022-10-28T06:59:54.368Z,11.54
2022-10-28T07:00:51.922Z,10.38
2022-10-28T07:01:48.752Z,10.81
2022-10-28T07:02:50.170Z,11.76
2022-10-28T07:03:47.434Z,12.02
2022-10-28T07:04:44.111Z,11.67
2022-10-28T07:05:41.096Z,11.39
2022-10-28T07:06:37.810Z,9.65
2022-10-28T07:07:37.298Z,10.63
2022-10-28T07:08:34.053Z,11.51
2022-10-28T07:09:30.849Z,10.85
2022-10-28T07:10:27.630Z,11.91
2022-10-28T07:11:24.435Z,12.06
2022-10-28T07:12:21.177Z,11.13
2022-10-28T07:13:18.057Z,11.77
2022-10-28T07:14:14.883Z,12.19
2022-10-28T07:15:11.767Z,12.16
2022-10-28T07:16:09.314Z,11.34
2022-10-28T07:17:06.055Z,12.22
2022-10-28T07:18:02.877Z,11.96
2022-10-28T07:18:59.629Z,11.38
2022-10-28T07:19:56.316Z,11.89
2022-10-28T07:20:58.863Z,10.08
2022-10-28T07:21:55.736Z,11.17
2022-10-28T07:23:04.964Z,12.43
2022-10-28T07:24:02.208Z,11.94
2022-10-28T07:24:58.936Z,11.02
2022-10-28T07:25:56.424Z,12.15
2022-10-28T07:26:55.616Z,11.90
2022-10-28T07:27:56.625Z,11.91
2022-10-28T07:28:53.875Z,12.44
2022-10-28T07:29:50.575Z,11.61
2022-10-28T07:30:47.277Z,11.79
2022-10-28T07:31:44.216Z,12.25
2022-10-28T07:32:40.977Z,12.21
2022-10-28T07:33:37.657Z,12.61
2022-10-28T07:34:34.401Z,12.75
2022-10-28T07:35:31.648Z,12.37
2022-10-28T07:36:28.573Z,12.80
2022-10-28T07:37:25.350Z,12.62
2022-10-28T07:38:22.640Z,12.24
2022-10-28T07:39:19.594Z,11.54
2022-10-28T07:40:16.499Z,12.60
2022-10-28T07:41:13.183Z,12.61
2022-10-28T07:42:09.870Z,12.33
2022-10-28T07:43:06.631Z,13.16
2022-10-28T07:44:03.718Z,13.17
2022-10-28T07:45:00.997Z,12.71
2022-10-28T07:45:58.579Z,12.26
2022-10-28T07:46:58.066Z,11.39
2022-10-28T07:47:55.274Z,12.96
2022-10-28T07:48:52.023Z,12.60
2022-10-28T07:49:48.724Z,13.01
2022-10-28T07:50:45.437Z,12.76
2022-10-28T07:51:42.121Z,13.24
2022-10-28T07:52:39.171Z,12.95
2022-10-28T07:53:35.919Z,12.67
2022-10-28T07:54:32.621Z,13.13
2022-10-28T07:55:29.451Z,13.27
2022-10-28T07:56:26.506Z,13.39
2022-10-28T07:57:23.320Z,12.82
2022-10-28T07:58:20.009Z,13.54
2022-10-28T07:59:16.751Z,13.65
2022-10-28T08:00:13.728Z,13.30
2022-10-28T08:01:15.085Z,13.58
2022-10-28T08:02:18.200Z,13.24
2022-10-28T08:03:14.947Z,13.65
2022-10-28T08:04:11.634Z,13.66
2022-10-28T08:05:09.002Z,13.26
2022-10-28T08:06:11.939Z,13.50
2022-10-28T08:07:08.821Z,13.49
2022-10-28T08:08:05.715Z,13.65
2022-10-28T08:09:03.197Z,13.53
2022-10-28T08:09:59.973Z,13.54
2022-10-28T08:10:56.713Z,13.45
2022-10-28T08:11:55.955Z,13.76
2022-10-28T08:12:52.617Z,13.87
2022-10-28T08:13:50.187Z,13.92
2022-10-28T08:14:46.969Z,13.93
2022-10-28T08:15:43.680Z,14.02
2022-10-28T08:16:40.525Z,13.99
2022-10-28T08:17:37.205Z,13.62
2022-10-28T08:18:34.964Z,13.82
2022-10-28T08:19:31.737Z,13.67
2022-10-28T08:20:28.539Z,13.26
2022-10-28T08:21:27.103Z,14.20
2022-10-28T08:22:24.669Z,13.94
2022-10-28T08:23:21.359Z,14.25
2022-10-28T08:24:18.072Z,14.23
2022-10-28T08:25:16.673Z,13.93
2022-10-28T08:26:16.944Z,13.82
2022-10-28T08:27:13.627Z,14.22
2022-10-28T08:28:10.338Z,14.40
2022-10-28T08:29:08.128Z,14.46
2022-10-28T08:30:05.500Z,13.16
2022-10-28T08:31:08.682Z,14.27
2022-10-28T08:32:09.371Z,14.38
2022-10-28T08:33:06.157Z,14.53
2022-10-28T08:34:02.933Z,14.37
2022-10-28T08:34:59.621Z,14.37
2022-10-28T08:35:56.337Z,14.53
2022-10-28T08:36:53.113Z,14.50
2022-10-28T08:37:53.284Z,14.58
2022-10-28T08:38:50.952Z,14.59
2022-10-28T08:39:47.647Z,13.62
2022-10-28T08:41:19.293Z,14.70
2022-10-28T08:42:43.898Z,14.65
2022-10-28T08:43:56.642Z,14.86
2022-10-28T08:44:57.180Z,15.05
2022-10-28T08:46:08.377Z,15.00
2022-10-28T08:47:22.145Z,14.45
2022-10-28T08:48:31.344Z,14.61
2022-10-28T08:49:33.866Z,14.94
2022-10-28T08:50:38.061Z,14.86
2022-10-28T08:52:00.925Z,14.88
2022-10-28T08:53:13.677Z,14.95
2022-10-28T08:54:21.862Z,14.96
2022-10-28T08:55:26.427Z,15.03
2022-10-28T08:56:35.418Z,15.20
2022-10-28T08:57:39.977Z,14.88
2022-10-28T08:58:39.385Z,14.93
2022-10-28T08:59:41.253Z,15.40
2022-10-28T09:00:38.565Z,14.51
2022-10-28T09:01:49.530Z,15.04
2022-10-28T09:03:03.313Z,14.37
2022-10-28T09:04:11.404Z,15.28
2022-10-28T09:05:25.762Z,15.24
2022-10-28T09:06:22.547Z,15.63
2022-10-28T09:07:22.369Z,14.79
2022-10-28T09:08:24.028Z,14.53
2022-10-28T09:09:23.564Z,15.26
2022-10-28T09:10:51.198Z,15.71
2022-10-28T09:12:12.855Z,15.68
2022-10-28T09:13:48.201Z,15.30
2022-10-28T09:15:03.924Z,15.77
2022-10-28T09:16:16.097Z,15.55
2022-10-28T09:17:27.967Z,14.87
2022-10-28T09:18:36.669Z,15.86
2022-10-28T09:20:00.925Z,15.73
2022-10-28T09:21:06.062Z,14.19
2022-10-28T09:22:23.372Z,15.98
2022-10-28T09:23:28.820Z,16.06
2022-10-28T09:25:21.879Z,16.15
2022-10-28T09:26:29.789Z,16.20
2022-10-28T09:27:59.439Z,15.17
2022-10-28T09:29:16.071Z,16.45
2022-10-28T09:30:54.602Z,16.47
2022-10-28T09:32:14.439Z,15.53
2022-10-28T09:33:26.064Z,16.46
2022-10-28T09:34:28.580Z,16.52
2022-10-28T09:35:30.757Z,16.45
2022-10-28T09:36:55.848Z,16.30
2022-10-28T09:38:12.012Z,16.44
2022-10-28T09:39:25.304Z,15.52
2022-10-28T09:40:29.658Z,16.26
2022-10-28T09:41:34.396Z,16.36
2022-10-28T09:44:07.939Z,16.62
2022-10-28T09:45:13.753Z,16.61
2022-10-28T09:46:14.800Z,16.72
2022-10-28T09:47:37.886Z,16.91
2022-10-28T09:48:39.328Z,15.99
2022-10-28T09:49:40.007Z,16.33
2022-10-28T09:50:36.687Z,16.98
2022-10-28T09:51:46.294Z,16.52
2022-10-28T09:53:04.513Z,16.99
2022-10-28T09:54:01.999Z,17.00
2022-10-28T09:55:07.833Z,17.14
2022-10-28T09:56:06.436Z,17.12
2022-10-28T09:57:05.032Z,16.99
2022-10-28T09:58:04.261Z,16.81
2022-10-28T09:59:03.230Z,17.15
2022-10-28T10:00:00.727Z,16.05
2022-10-28T10:00:57.494Z,16.03
2022-10-28T10:01:54.500Z,17.24
2022-10-28T10:02:59.955Z,16.89
2022-10-28T10:03:56.710Z,17.00
2022-10-28T10:04:56.237Z,17.03
2022-10-28T10:05:58.432Z,17.26
2022-10-28T10:07:05.797Z,16.90
2022-10-28T10:08:05.776Z,17.27
2022-10-28T10:09:03.190Z,17.19
2022-10-28T10:10:06.327Z,17.15
2022-10-28T10:11:13.791Z,17.29
2022-10-28T10:12:13.609Z,16.89
2022-10-28T10:13:14.396Z,17.41
2022-10-28T10:14:45.181Z,17.51
2022-10-28T10:15:49.237Z,17.12
2022-10-28T10:16:47.685Z,17.45
2022-10-28T10:17:47.672Z,17.41
2022-10-28T10:18:51.141Z,17.12
2022-10-28T10:20:22.633Z,17.50
2022-10-28T10:21:49.292Z,17.57
2022-10-28T10:22:48.965Z,17.09
2022-10-28T10:23:45.693Z,17.26
2022-10-28T10:24:45.320Z,17.70
2022-10-28T10:25:44.406Z,17.72
2022-10-28T10:26:41.164Z,17.82
2022-10-28T10:27:38.000Z,17.57
2022-10-28T10:28:40.316Z,17.60
2022-10-28T10:29:51.534Z,17.97
2022-10-28T10:30:55.441Z,18.05
2022-10-28T10:32:17.863Z,17.99
2022-10-28T10:33:36.839Z,17.92
2022-10-28T10:34:34.008Z,17.71
2022-10-28T10:35:34.205Z,17.87
2022-10-28T10:36:31.591Z,17.76
2022-10-28T10:37:33.056Z,18.17
2022-10-28T10:38:32.021Z,17.73
2022-10-28T10:39:37.374Z,18.08
2022-10-28T10:40:47.005Z,18.09
2022-10-28T10:41:45.350Z,17.58
2022-10-28T10:42:51.693Z,17.45
2022-10-28T10:43:58.913Z,18.21
2022-10-28T10:45:19.919Z,18.18
2022-10-28T10:46:18.099Z,18.28
2022-10-28T10:47:18.858Z,18.25
2022-10-28T10:48:18.312Z,16.52
2022-10-28T10:49:15.864Z,18.15
2022-10-28T10:50:38.919Z,18.35
2022-10-28T10:51:38.720Z,18.22
2022-10-28T10:52:37.739Z,18.34
2022-10-28T10:53:36.769Z,18.49
2022-10-28T10:54:37.558Z,18.38
2022-10-28T10:55:34.223Z,18.37
2022-10-28T10:56:33.482Z,18.23
2022-10-28T10:57:32.279Z,18.16
2022-10-28T10:58:35.676Z,17.77
2022-10-28T10:59:37.681Z,18.23
2022-10-28T11:00:44.692Z,18.20
2022-10-28T11:01:41.596Z,17.43
2022-10-28T11:02:40.153Z,18.45
2022-10-28T11:03:47.620Z,18.33
2022-10-28T11:04:52.265Z,17.43
2022-10-28T11:06:18.247Z,17.55
2022-10-28T11:07:16.177Z,18.35
2022-10-28T11:08:24.909Z,18.49
2022-10-28T11:09:42.438Z,17.96
2022-10-28T11:10:39.267Z,18.68
2022-10-28T11:11:38.932Z,18.62
2022-10-28T11:12:37.038Z,18.54
2022-10-28T11:13:35.688Z,18.36
2022-10-28T11:14:33.025Z,18.68
2022-10-28T11:15:31.033Z,18.78
2022-10-28T11:16:27.717Z,18.81
2022-10-28T11:17:27.909Z,18.80
2022-10-28T11:18:24.615Z,17.97
2022-10-28T11:19:35.792Z,18.84
2022-10-28T11:20:50.460Z,18.77
2022-10-28T11:21:55.350Z,18.75
2022-10-28T11:23:13.735Z,18.92
2022-10-28T11:24:44.902Z,18.68
2022-10-28T11:25:46.860Z,18.85
2022-10-28T11:27:09.088Z,18.17
2022-10-28T11:28:36.899Z,18.82
2022-10-28T11:29:33.886Z,18.58
2022-10-28T11:31:12.879Z,18.77
2022-10-28T11:32:15.483Z,18.96
2022-10-28T11:33:30.161Z,18.68
2022-10-28T11:34:36.189Z,19.00
2022-10-28T11:35:50.903Z,19.06
2022-10-28T11:37:05.348Z,19.11
2022-10-28T11:38:27.038Z,19.29
2022-10-28T11:39:48.285Z,19.25
2022-10-28T11:41:20.451Z,19.29
2022-10-28T11:42:30.308Z,19.16
2022-10-28T11:43:36.210Z,19.37
2022-10-28T11:45:01.804Z,19.35
2022-10-28T11:46:14.668Z,19.05
2022-10-28T11:47:26.522Z,19.40
2022-10-28T11:48:23.226Z,19.35
2022-10-28T11:49:49.070Z,19.42
2022-10-28T11:50:57.092Z,19.06
2022-10-28T11:52:27.869Z,19.51
2022-10-28T11:53:53.884Z,18.52
2022-10-28T11:54:58.986Z,19.19
2022-10-28T11:56:17.194Z,19.20
2022-10-28T11:57:19.373Z,19.13
2022-10-28T11:58:33.672Z,19.27
2022-10-28T11:59:39.326Z,19.30
2022-10-28T12:01:09.804Z,19.33
2022-10-28T12:02:19.623Z,19.19
2022-10-28T12:03:38.148Z,19.32
2022-10-28T12:04:59.064Z,19.30
2022-10-28T12:06:20.174Z,18.78
2022-10-28T12:07:46.117Z,19.42
2022-10-28T12:09:10.282Z,19.33
2022-10-28T12:10:15.353Z,19.26
2022-10-28T12:11:40.127Z,19.38
2022-10-28T12:12:51.450Z,19.36
2022-10-28T12:14:27.952Z,19.41
2022-10-28T12:15:27.421Z,19.32
2022-10-28T12:16:40.405Z,19.46
2022-10-28T12:17:56.215Z,19.53
2022-10-28T12:19:03.766Z,19.49
2022-10-28T12:20:20.813Z,19.25
2022-10-28T12:21:20.586Z,19.50
2022-10-28T12:22:45.811Z,19.54
2022-10-28T12:23:44.982Z,19.52
2022-10-28T12:24:46.405Z,19.48
2022-10-28T12:25:49.593Z,19.56
2022-10-28T12:27:00.713Z,19.62
2022-10-28T12:29:27.916Z,19.73
2022-10-28T12:30:32.177Z,19.22
2022-10-28T12:31:44.377Z,18.69
2022-10-28T12:32:45.228Z,19.37
2022-10-28T12:33:50.260Z,19.54
2022-10-28T12:35:22.420Z,19.64
2022-10-28T12:36:34.921Z,19.60
2022-10-28T12:37:44.710Z,19.62
2022-10-28T12:38:59.357Z,19.62
2022-10-28T12:40:02.238Z,19.48
2022-10-28T12:41:43.696Z,19.58
2022-10-28T12:42:49.921Z,19.15
2022-10-28T12:44:03.061Z,19.70
2022-10-28T12:45:06.355Z,19.20
2022-10-28T12:46:04.230Z,19.55
2022-10-28T12:47:10.131Z,19.63
2022-10-28T12:48:18.936Z,19.65
2022-10-28T12:49:27.224Z,19.15
2022-10-28T12:50:28.095Z,19.70
2022-10-28T12:51:36.232Z,19.20
2022-10-28T12:52:39.504Z,19.84
2022-10-28T12:53:56.176Z,19.51
2022-10-28T12:55:21.071Z,19.54
2022-10-28T12:56:40.545Z,19.68
2022-10-28T12:57:41.016Z,19.62
2022-10-28T12:59:11.375Z,19.66
2022-10-28T13:00:19.369Z,19.69
2022-10-28T13:01:21.061Z,19.66
2022-10-28T13:02:26.696Z,19.64
2022-10-28T13:03:23.557Z,19.67
2022-10-28T13:04:20.472Z,19.52
2022-10-28T13:05:42.793Z,19.46
2022-10-28T13:06:57.457Z,19.63
2022-10-28T13:08:03.380Z,19.73
2022-10-28T13:09:18.225Z,19.73
2022-10-28T13:10:41.617Z,19.61
2022-10-28T13:11:59.945Z,19.92
2022-10-28T13:13:09.397Z,19.14
2022-10-28T13:14:27.244Z,20.00
2022-10-28T13:15:52.418Z,20.11
2022-10-28T13:17:28.996Z,20.33
2022-10-28T13:18:59.300Z,21.01
2022-10-28T13:20:18.300Z,20.56
2022-10-28T13:21:50.744Z,20.77
2022-10-28T13:22:50.496Z,21.19
2022-10-28T13:24:11.570Z,21.16
2022-10-28T13:25:50.469Z,20.66
2022-10-28T13:26:48.558Z,20.42
2022-10-28T13:27:45.977Z,20.06
2022-10-28T13:28:49.877Z,19.90
2022-10-28T13:29:54.315Z,20.20
2022-10-28T13:30:58.504Z,20.14
2022-10-28T13:31:56.161Z,20.10
2022-10-28T13:33:06.957Z,19.94
2022-10-28T13:34:04.480Z,19.15
2022-10-28T13:35:16.245Z,19.86
2022-10-28T13:36:18.949Z,20.05
2022-10-28T13:37:23.178Z,20.09
2022-10-28T13:38:26.373Z,19.57
2022-10-28T13:39:43.199Z,19.61
2022-10-28T13:40:39.825Z,19.94
2022-10-28T13:41:44.682Z,19.99
2022-10-28T13:42:47.905Z,20.02
2022-10-28T13:43:50.581Z,19.95